Orion, Michigan
Current Conditions -  °F | °C
As of 4:16 PM on Sunday 23 Nov 2014 (Local Time) from KPTK Reporting Station
Overcast Overcast  
Wind Chill: 50°   Ceiling: 2600
Heat Index: 50°   Visibility: 10mi
Dew Point: 43°   Wind: 9mph
Humidity: 77%   Direction: 130°SE
Pressure: 29.68"   Gusts: NA
Location:  42.7458°N, 83.2617°W
Report Text: KPTK 232116Z 13008KT 10SM BKN026 BKN033 OVC050 10/06 A2968 RMK AO2 T01000061
Loading
Personal Weather Stations






























Interactive Weather Map New forecast layout! Learn more

10-Day Weather Forecast

Advertisements
Track Severe Weather on mobile